sensor_id;sensor_type;location;lat;lon;timestamp;temperature;humidity
60965;DHT22;46834;51.100;6.886;2022-07-29T00:00:07;21.80;34.70
60965;DHT22;46834;51.100;6.886;2022-07-29T00:02:34;21.80;34.80
60965;DHT22;46834;51.100;6.886;2022-07-29T00:05:00;21.70;34.60
60965;DHT22;46834;51.100;6.886;2022-07-29T00:07:26;21.70;34.60
60965;DHT22;46834;51.100;6.886;2022-07-29T00:09:52;21.70;34.60
60965;DHT22;46834;51.100;6.886;2022-07-29T00:12:23;21.70;34.70
60965;DHT22;46834;51.100;6.886;2022-07-29T00:14:50;21.70;34.90
60965;DHT22;46834;51.100;6.886;2022-07-29T00:17:16;21.70;34.80
60965;DHT22;46834;51.100;6.886;2022-07-29T00:19:41;21.70;34.90
60965;DHT22;46834;51.100;6.886;2022-07-29T00:22:07;21.60;34.90
60965;DHT22;46834;51.100;6.886;2022-07-29T00:24:33;21.60;35.00
60965;DHT22;46834;51.100;6.886;2022-07-29T00:26:59;21.60;35.00
60965;DHT22;46834;51.100;6.886;2022-07-29T00:29:24;21.60;35.00
60965;DHT22;46834;51.100;6.886;2022-07-29T00:31:50;21.60;35.00
60965;DHT22;46834;51.100;6.886;2022-07-29T00:34:17;21.60;34.90
60965;DHT22;46834;51.100;6.886;2022-07-29T00:37:01;21.60;34.90
60965;DHT22;46834;51.100;6.886;2022-07-29T00:39:27;21.50;34.70
60965;DHT22;46834;51.100;6.886;2022-07-29T00:41:52;21.60;34.80
60965;DHT22;46834;51.100;6.886;2022-07-29T00:44:19;21.50;34.80
60965;DHT22;46834;51.100;6.886;2022-07-29T00:46:44;21.50;34.90
60965;DHT22;46834;51.100;6.886;2022-07-29T00:49:10;21.50;34.90
60965;DHT22;46834;51.100;6.886;2022-07-29T00:51:37;21.50;35.00
60965;DHT22;46834;51.100;6.886;2022-07-29T00:54:03;21.40;35.00
60965;DHT22;46834;51.100;6.886;2022-07-29T00:56:31;21.40;35.10
60965;DHT22;46834;51.100;6.886;2022-07-29T00:58:58;21.40;35.20
60965;DHT22;46834;51.100;6.886;2022-07-29T01:01:24;21.40;35.30
60965;DHT22;46834;51.100;6.886;2022-07-29T01:03:51;21.40;35.30
60965;DHT22;46834;51.100;6.886;2022-07-29T01:06:18;21.40;35.40
60965;DHT22;46834;51.100;6.886;2022-07-29T01:08:47;21.40;35.40
60965;DHT22;46834;51.100;6.886;2022-07-29T01:11:15;21.40;35.40
60965;DHT22;46834;51.100;6.886;2022-07-29T01:13:43;21.40;35.30
60965;DHT22;46834;51.100;6.886;2022-07-29T01:16:20;21.30;35.20
60965;DHT22;46834;51.100;6.886;2022-07-29T01:18:54;21.30;35.20
60965;DHT22;46834;51.100;6.886;2022-07-29T01:24:34;21.30;35.10
60965;DHT22;46834;51.100;6.886;2022-07-29T01:27:37;21.30;35.10
60965;DHT22;46834;51.100;6.886;2022-07-29T01:30:08;21.30;35.20
60965;DHT22;46834;51.100;6.886;2022-07-29T01:32:36;21.20;35.00
60965;DHT22;46834;51.100;6.886;2022-07-29T01:35:30;21.20;35.20
60965;DHT22;46834;51.100;6.886;2022-07-29T01:38:08;21.20;35.30
60965;DHT22;46834;51.100;6.886;2022-07-29T01:40:43;21.10;35.10
60965;DHT22;46834;51.100;6.886;2022-07-29T01:43:20;21.10;35.10
60965;DHT22;46834;51.100;6.886;2022-07-29T01:45:56;21.10;35.30
60965;DHT22;46834;51.100;6.886;2022-07-29T01:48:48;21.10;35.30
60965;DHT22;46834;51.100;6.886;2022-07-29T01:51:47;21.00;35.30
60965;DHT22;46834;51.100;6.886;2022-07-29T01:54:21;21.10;35.30
60965;DHT22;46834;51.100;6.886;2022-07-29T01:56:56;21.00;35.10
60965;DHT22;46834;51.100;6.886;2022-07-29T01:59:25;21.00;35.30
60965;DHT22;46834;51.100;6.886;2022-07-29T02:01:54;21.00;35.30
60965;DHT22;46834;51.100;6.886;2022-07-29T02:04:22;21.00;35.40
60965;DHT22;46834;51.100;6.886;2022-07-29T02:06:51;21.00;35.50
60965;DHT22;46834;51.100;6.886;2022-07-29T02:09:19;21.00;35.90
60965;DHT22;46834;51.100;6.886;2022-07-29T02:11:50;21.00;36.10
60965;DHT22;46834;51.100;6.886;2022-07-29T02:14:20;21.00;36.60
60965;DHT22;46834;51.100;6.886;2022-07-29T02:16:50;21.00;36.70
60965;DHT22;46834;51.100;6.886;2022-07-29T02:19:21;21.00;36.80
60965;DHT22;46834;51.100;6.886;2022-07-29T02:21:53;21.00;36.80
60965;DHT22;46834;51.100;6.886;2022-07-29T02:24:21;21.00;36.70
60965;DHT22;46834;51.100;6.886;2022-07-29T02:26:49;21.00;36.60
60965;DHT22;46834;51.100;6.886;2022-07-29T02:29:20;20.90;36.60
60965;DHT22;46834;51.100;6.886;2022-07-29T02:31:49;20.90;36.70
60965;DHT22;46834;51.100;6.886;2022-07-29T02:34:17;20.90;36.70
60965;DHT22;46834;51.100;6.886;2022-07-29T02:36:45;20.80;36.70
60965;DHT22;46834;51.100;6.886;2022-07-29T02:39:13;20.80;36.90
60965;DHT22;46834;51.100;6.886;2022-07-29T02:41:43;20.80;37.10
60965;DHT22;46834;51.100;6.886;2022-07-29T02:44:17;20.80;37.30
60965;DHT22;46834;51.100;6.886;2022-07-29T02:47:10;20.80;37.50
60965;DHT22;46834;51.100;6.886;2022-07-29T02:50:02;20.80;37.60
60965;DHT22;46834;51.100;6.886;2022-07-29T02:53:18;20.80;37.50
60965;DHT22;46834;51.100;6.886;2022-07-29T02:55:59;20.70;36.80
60965;DHT22;46834;51.100;6.886;2022-07-29T02:58:34;20.70;36.90
60965;DHT22;46834;51.100;6.886;2022-07-29T03:01:16;20.70;36.80
60965;DHT22;46834;51.100;6.886;2022-07-29T03:03:48;20.70;36.90
60965;DHT22;46834;51.100;6.886;2022-07-29T03:06:17;20.60;36.70
60965;DHT22;46834;51.100;6.886;2022-07-29T03:08:45;20.60;36.80
60965;DHT22;46834;51.100;6.886;2022-07-29T03:11:12;20.50;36.70
60965;DHT22;46834;51.100;6.886;2022-07-29T03:13:39;20.50;36.70
60965;DHT22;46834;51.100;6.886;2022-07-29T03:16:07;20.50;36.80
60965;DHT22;46834;51.100;6.886;2022-07-29T03:18:34;20.50;36.90
60965;DHT22;46834;51.100;6.886;2022-07-29T03:21:02;20.50;36.90
60965;DHT22;46834;51.100;6.886;2022-07-29T03:23:28;20.50;36.90
60965;DHT22;46834;51.100;6.886;2022-07-29T03:25:55;20.40;36.70
60965;DHT22;46834;51.100;6.886;2022-07-29T03:28:21;20.40;36.70
60965;DHT22;46834;51.100;6.886;2022-07-29T03:30:48;20.40;36.80
60965;DHT22;46834;51.100;6.886;2022-07-29T03:33:14;20.40;36.80
60965;DHT22;46834;51.100;6.886;2022-07-29T03:35:40;20.40;36.90
60965;DHT22;46834;51.100;6.886;2022-07-29T03:38:06;20.40;37.00
60965;DHT22;46834;51.100;6.886;2022-07-29T03:40:54;20.40;37.00
60965;DHT22;46834;51.100;6.886;2022-07-29T03:43:20;20.30;36.90
60965;DHT22;46834;51.100;6.886;2022-07-29T03:45:52;20.30;37.00
60965;DHT22;46834;51.100;6.886;2022-07-29T03:48:21;20.30;37.10
60965;DHT22;46834;51.100;6.886;2022-07-29T03:50:50;20.30;37.20
60965;DHT22;46834;51.100;6.886;2022-07-29T03:53:16;20.30;37.10
60965;DHT22;46834;51.100;6.886;2022-07-29T03:55:50;20.20;37.10
60965;DHT22;46834;51.100;6.886;2022-07-29T03:58:19;20.20;37.40
60965;DHT22;46834;51.100;6.886;2022-07-29T04:00:46;20.20;37.20
60965;DHT22;46834;51.100;6.886;2022-07-29T04:03:12;20.20;37.30
60965;DHT22;46834;51.100;6.886;2022-07-29T04:05:38;20.10;37.30
60965;DHT22;46834;51.100;6.886;2022-07-29T04:08:04;20.00;37.50
60965;DHT22;46834;51.100;6.886;2022-07-29T04:10:30;20.00;37.60
60965;DHT22;46834;51.100;6.886;2022-07-29T04:12:56;20.00;37.70
60965;DHT22;46834;51.100;6.886;2022-07-29T04:15:22;19.90;37.70
60965;DHT22;46834;51.100;6.886;2022-07-29T04:17:47;19.90;37.80
60965;DHT22;46834;51.100;6.886;2022-07-29T04:20:13;19.90;37.80
60965;DHT22;46834;51.100;6.886;2022-07-29T04:22:39;19.90;37.80
60965;DHT22;46834;51.100;6.886;2022-07-29T04:25:06;19.90;37.80
60965;DHT22;46834;51.100;6.886;2022-07-29T04:27:32;19.80;37.90
60965;DHT22;46834;51.100;6.886;2022-07-29T04:29:58;19.80;37.90
60965;DHT22;46834;51.100;6.886;2022-07-29T04:32:24;19.90;38.00
60965;DHT22;46834;51.100;6.886;2022-07-29T04:34:51;19.80;37.90
60965;DHT22;46834;51.100;6.886;2022-07-29T04:37:16;19.90;38.00
60965;DHT22;46834;51.100;6.886;2022-07-29T04:39:42;19.90;38.10
60965;DHT22;46834;51.100;6.886;2022-07-29T04:42:08;19.80;38.00
60965;DHT22;46834;51.100;6.886;2022-07-29T04:44:34;19.80;38.10
60965;DHT22;46834;51.100;6.886;2022-07-29T04:47:00;19.80;38.10
60965;DHT22;46834;51.100;6.886;2022-07-29T04:49:25;19.80;38.00
60965;DHT22;46834;51.100;6.886;2022-07-29T04:51:51;19.80;38.00
60965;DHT22;46834;51.100;6.886;2022-07-29T04:54:17;19.80;38.00
60965;DHT22;46834;51.100;6.886;2022-07-29T04:56:43;19.80;38.00
60965;DHT22;46834;51.100;6.886;2022-07-29T04:59:09;19.80;38.60
60965;DHT22;46834;51.100;6.886;2022-07-29T05:01:34;19.80;38.00
60965;DHT22;46834;51.100;6.886;2022-07-29T05:04:00;19.80;38.00
60965;DHT22;46834;51.100;6.886;2022-07-29T05:06:26;19.80;38.10
60965;DHT22;46834;51.100;6.886;2022-07-29T05:08:51;19.80;38.10
60965;DHT22;46834;51.100;6.886;2022-07-29T05:11:17;19.80;38.20
60965;DHT22;46834;51.100;6.886;2022-07-29T05:13:43;19.80;38.20
60965;DHT22;46834;51.100;6.886;2022-07-29T05:16:09;19.80;38.20
60965;DHT22;46834;51.100;6.886;2022-07-29T05:18:34;19.80;38.10
60965;DHT22;46834;51.100;6.886;2022-07-29T05:21:00;19.80;38.10
60965;DHT22;46834;51.100;6.886;2022-07-29T05:23:26;19.80;38.10
60965;DHT22;46834;51.100;6.886;2022-07-29T05:25:51;19.90;38.20
60965;DHT22;46834;51.100;6.886;2022-07-29T05:28:17;19.80;38.20
60965;DHT22;46834;51.100;6.886;2022-07-29T05:30:43;19.90;38.30
60965;DHT22;46834;51.100;6.886;2022-07-29T05:33:10;19.90;38.30
60965;DHT22;46834;51.100;6.886;2022-07-29T05:35:36;19.90;38.40
60965;DHT22;46834;51.100;6.886;2022-07-29T05:38:03;20.00;38.40
60965;DHT22;46834;51.100;6.886;2022-07-29T05:40:29;20.00;38.30
60965;DHT22;46834;51.100;6.886;2022-07-29T05:42:55;20.00;38.30
60965;DHT22;46834;51.100;6.886;2022-07-29T05:45:21;20.10;38.20
60965;DHT22;46834;51.100;6.886;2022-07-29T05:47:47;20.10;38.20
60965;DHT22;46834;51.100;6.886;2022-07-29T05:50:13;20.10;38.10
60965;DHT22;46834;51.100;6.886;2022-07-29T05:52:39;20.20;38.10
60965;DHT22;46834;51.100;6.886;2022-07-29T05:55:05;20.20;38.10
60965;DHT22;46834;51.100;6.886;2022-07-29T05:57:31;20.20;37.90
60965;DHT22;46834;51.100;6.886;2022-07-29T05:59:57;20.30;38.00
60965;DHT22;46834;51.100;6.886;2022-07-29T06:02:23;20.30;38.00
60965;DHT22;46834;51.100;6.886;2022-07-29T06:04:49;20.40;38.10
60965;DHT22;46834;51.100;6.886;2022-07-29T06:07:15;20.40;38.00
60965;DHT22;46834;51.100;6.886;2022-07-29T06:09:41;20.50;38.20
60965;DHT22;46834;51.100;6.886;2022-07-29T06:12:08;20.50;38.10
60965;DHT22;46834;51.100;6.886;2022-07-29T06:14:34;20.60;38.10
60965;DHT22;46834;51.100;6.886;2022-07-29T06:17:00;20.70;38.10
60965;DHT22;46834;51.100;6.886;2022-07-29T06:19:26;20.70;38.10
60965;DHT22;46834;51.100;6.886;2022-07-29T06:21:52;20.70;38.00
60965;DHT22;46834;51.100;6.886;2022-07-29T06:24:18;20.80;38.00
60965;DHT22;46834;51.100;6.886;2022-07-29T06:26:44;20.80;37.90
60965;DHT22;46834;51.100;6.886;2022-07-29T06:29:10;20.80;37.80
60965;DHT22;46834;51.100;6.886;2022-07-29T06:31:36;20.80;37.70
60965;DHT22;46834;51.100;6.886;2022-07-29T06:34:03;20.80;37.60
60965;DHT22;46834;51.100;6.886;2022-07-29T06:36:29;20.80;37.60
60965;DHT22;46834;51.100;6.886;2022-07-29T06:38:55;20.80;37.60
60965;DHT22;46834;51.100;6.886;2022-07-29T06:41:21;20.80;37.70
60965;DHT22;46834;51.100;6.886;2022-07-29T06:43:48;20.80;37.90
60965;DHT22;46834;51.100;6.886;2022-07-29T06:46:16;20.80;38.00
60965;DHT22;46834;51.100;6.886;2022-07-29T06:48:44;20.90;38.10
60965;DHT22;46834;51.100;6.886;2022-07-29T06:51:11;20.90;38.10
60965;DHT22;46834;51.100;6.886;2022-07-29T06:53:37;20.90;38.10
60965;DHT22;46834;51.100;6.886;2022-07-29T06:56:05;20.90;38.10
60965;DHT22;46834;51.100;6.886;2022-07-29T06:58:33;20.90;37.90
60965;DHT22;46834;51.100;6.886;2022-07-29T07:01:02;20.90;37.90
60965;DHT22;46834;51.100;6.886;2022-07-29T07:03:29;20.90;38.00
60965;DHT22;46834;51.100;6.886;2022-07-29T07:05:55;20.90;38.10
60965;DHT22;46834;51.100;6.886;2022-07-29T07:08:22;20.90;38.40
60965;DHT22;46834;51.100;6.886;2022-07-29T07:10:49;20.90;38.60
60965;DHT22;46834;51.100;6.886;2022-07-29T07:13:16;20.80;38.60
60965;DHT22;46834;51.100;6.886;2022-07-29T07:15:43;20.80;38.80
60965;DHT22;46834;51.100;6.886;2022-07-29T07:18:10;20.70;38.90
60965;DHT22;46834;51.100;6.886;2022-07-29T07:20:36;20.70;39.10
60965;DHT22;46834;51.100;6.886;2022-07-29T07:23:02;20.60;39.20
60965;DHT22;46834;51.100;6.886;2022-07-29T07:25:28;20.60;39.50
60965;DHT22;46834;51.100;6.886;2022-07-29T07:27:54;20.50;39.60
60965;DHT22;46834;51.100;6.886;2022-07-29T07:30:21;20.50;40.00
60965;DHT22;46834;51.100;6.886;2022-07-29T07:32:50;20.40;40.20
60965;DHT22;46834;51.100;6.886;2022-07-29T07:35:17;20.40;40.40
60965;DHT22;46834;51.100;6.886;2022-07-29T07:37:42;20.40;40.60
60965;DHT22;46834;51.100;6.886;2022-07-29T07:40:09;20.30;40.70
60965;DHT22;46834;51.100;6.886;2022-07-29T07:42:37;20.30;40.90
60965;DHT22;46834;51.100;6.886;2022-07-29T07:45:04;20.30;41.10
60965;DHT22;46834;51.100;6.886;2022-07-29T07:47:31;20.30;41.10
60965;DHT22;46834;51.100;6.886;2022-07-29T07:49:57;20.30;41.10
60965;DHT22;46834;51.100;6.886;2022-07-29T07:52:23;20.30;41.30
60965;DHT22;46834;51.100;6.886;2022-07-29T07:54:49;20.30;41.40
60965;DHT22;46834;51.100;6.886;2022-07-29T07:57:15;20.30;41.40
60965;DHT22;46834;51.100;6.886;2022-07-29T07:59:41;20.30;41.40
60965;DHT22;46834;51.100;6.886;2022-07-29T08:02:08;20.30;41.40
60965;DHT22;46834;51.100;6.886;2022-07-29T08:04:34;20.30;41.60
60965;DHT22;46834;51.100;6.886;2022-07-29T08:07:01;20.30;41.80
60965;DHT22;46834;51.100;6.886;2022-07-29T08:09:28;20.20;41.70
60965;DHT22;46834;51.100;6.886;2022-07-29T08:11:55;20.20;41.90
60965;DHT22;46834;51.100;6.886;2022-07-29T08:14:22;20.20;42.10
60965;DHT22;46834;51.100;6.886;2022-07-29T08:16:47;20.20;42.00
60965;DHT22;46834;51.100;6.886;2022-07-29T08:19:13;20.20;41.90
60965;DHT22;46834;51.100;6.886;2022-07-29T08:21:40;20.20;42.00
60965;DHT22;46834;51.100;6.886;2022-07-29T08:24:06;20.10;41.90
60965;DHT22;46834;51.100;6.886;2022-07-29T08:26:50;20.10;42.10
60965;DHT22;46834;51.100;6.886;2022-07-29T08:29:16;20.10;42.40
60965;DHT22;46834;51.100;6.886;2022-07-29T08:31:42;20.20;42.60
60965;DHT22;46834;51.100;6.886;2022-07-29T08:34:08;20.20;42.80
60965;DHT22;46834;51.100;6.886;2022-07-29T08:36:34;20.20;42.80
60965;DHT22;46834;51.100;6.886;2022-07-29T08:39:01;20.20;42.70
60965;DHT22;46834;51.100;6.886;2022-07-29T08:41:27;20.20;42.70
60965;DHT22;46834;51.100;6.886;2022-07-29T08:43:53;20.20;42.70
60965;DHT22;46834;51.100;6.886;2022-07-29T08:46:20;20.20;42.80
60965;DHT22;46834;51.100;6.886;2022-07-29T08:48:47;20.10;42.90
60965;DHT22;46834;51.100;6.886;2022-07-29T08:51:20;20.10;42.90
60965;DHT22;46834;51.100;6.886;2022-07-29T08:53:48;20.20;43.80
60965;DHT22;46834;51.100;6.886;2022-07-29T08:56:16;20.20;43.50
60965;DHT22;46834;51.100;6.886;2022-07-29T08:58:44;20.20;43.70
60965;DHT22;46834;51.100;6.886;2022-07-29T09:01:13;20.30;43.90
60965;DHT22;46834;51.100;6.886;2022-07-29T09:03:43;20.30;44.00
60965;DHT22;46834;51.100;6.886;2022-07-29T09:06:16;20.40;44.30
60965;DHT22;46834;51.100;6.886;2022-07-29T09:08:44;20.40;44.60
60965;DHT22;46834;51.100;6.886;2022-07-29T09:11:11;20.40;44.00
60965;DHT22;46834;51.100;6.886;2022-07-29T09:13:37;20.40;44.00
60965;DHT22;46834;51.100;6.886;2022-07-29T09:16:04;20.50;44.10
60965;DHT22;46834;51.100;6.886;2022-07-29T09:18:41;20.50;44.80
60965;DHT22;46834;51.100;6.886;2022-07-29T09:21:11;20.50;44.60
60965;DHT22;46834;51.100;6.886;2022-07-29T09:24:07;20.50;44.40
60965;DHT22;46834;51.100;6.886;2022-07-29T09:26:43;20.50;44.80
60965;DHT22;46834;51.100;6.886;2022-07-29T09:29:12;20.50;44.60
60965;DHT22;46834;51.100;6.886;2022-07-29T09:31:44;20.50;44.40
60965;DHT22;46834;51.100;6.886;2022-07-29T09:34:13;20.50;44.30
60965;DHT22;46834;51.100;6.886;2022-07-29T09:36:46;20.50;44.30
60965;DHT22;46834;51.100;6.886;2022-07-29T09:39:13;20.50;44.40
60965;DHT22;46834;51.100;6.886;2022-07-29T09:41:48;20.40;44.30
60965;DHT22;46834;51.100;6.886;2022-07-29T09:44:22;20.50;45.00
60965;DHT22;46834;51.100;6.886;2022-07-29T09:46:56;20.40;44.50
60965;DHT22;46834;51.100;6.886;2022-07-29T09:49:24;20.40;44.90
60965;DHT22;46834;51.100;6.886;2022-07-29T09:52:04;20.40;44.50
60965;DHT22;46834;51.100;6.886;2022-07-29T09:54:32;20.50;45.20
60965;DHT22;46834;51.100;6.886;2022-07-29T09:57:09;20.40;44.60
60965;DHT22;46834;51.100;6.886;2022-07-29T09:59:59;20.40;44.70
60965;DHT22;46834;51.100;6.886;2022-07-29T10:02:35;20.40;45.40
60965;DHT22;46834;51.100;6.886;2022-07-29T10:05:04;20.40;44.80
60965;DHT22;46834;51.100;6.886;2022-07-29T10:07:55;20.40;45.10
60965;DHT22;46834;51.100;6.886;2022-07-29T10:10:42;20.40;45.70
60965;DHT22;46834;51.100;6.886;2022-07-29T10:13:14;20.50;45.70
60965;DHT22;46834;51.100;6.886;2022-07-29T10:15:42;20.50;45.60
60965;DHT22;46834;51.100;6.886;2022-07-29T10:18:11;20.50;45.20
60965;DHT22;46834;51.100;6.886;2022-07-29T10:20:38;20.60;45.30
60965;DHT22;46834;51.100;6.886;2022-07-29T10:23:05;20.60;45.30
60965;DHT22;46834;51.100;6.886;2022-07-29T10:25:31;20.70;45.30
60965;DHT22;46834;51.100;6.886;2022-07-29T10:27:57;20.70;45.30
60965;DHT22;46834;51.100;6.886;2022-07-29T10:30:25;20.80;45.40
60965;DHT22;46834;51.100;6.886;2022-07-29T10:33:27;20.90;45.50
60965;DHT22;46834;51.100;6.886;2022-07-29T10:38:53;21.00;45.60
60965;DHT22;46834;51.100;6.886;2022-07-29T10:44:27;21.20;45.20
60965;DHT22;46834;51.100;6.886;2022-07-29T10:46:54;21.30;44.90
60965;DHT22;46834;51.100;6.886;2022-07-29T10:49:22;21.30;44.70
60965;DHT22;46834;51.100;6.886;2022-07-29T10:57:25;21.40;44.80
60965;DHT22;46834;51.100;6.886;2022-07-29T11:05:01;21.70;44.80
60965;DHT22;46834;51.100;6.886;2022-07-29T11:07:35;21.80;45.00
60965;DHT22;46834;51.100;6.886;2022-07-29T11:15:10;22.20;44.60
60965;DHT22;46834;51.100;6.886;2022-07-29T11:23:28;22.60;44.30
60965;DHT22;46834;51.100;6.886;2022-07-29T11:26:16;22.80;44.20
60965;DHT22;46834;51.100;6.886;2022-07-29T11:31:50;23.00;43.60
60965;DHT22;46834;51.100;6.886;2022-07-29T11:39:36;23.20;42.80
60965;DHT22;46834;51.100;6.886;2022-07-29T11:47:29;23.40;42.80
60965;DHT22;46834;51.100;6.886;2022-07-29T11:49:56;23.40;42.50
60965;DHT22;46834;51.100;6.886;2022-07-29T11:52:38;23.50;42.40
60965;DHT22;46834;51.100;6.886;2022-07-29T11:55:14;23.50;42.10
60965;DHT22;46834;51.100;6.886;2022-07-29T11:57:53;23.60;42.10
60965;DHT22;46834;51.100;6.886;2022-07-29T12:00:31;23.60;42.00
60965;DHT22;46834;51.100;6.886;2022-07-29T12:03:05;23.70;42.00
60965;DHT22;46834;51.100;6.886;2022-07-29T12:05:43;23.70;41.90
60965;DHT22;46834;51.100;6.886;2022-07-29T12:10:36;23.90;41.70
60965;DHT22;46834;51.100;6.886;2022-07-29T12:13:03;23.90;41.60
60965;DHT22;46834;51.100;6.886;2022-07-29T12:15:29;24.00;41.50
60965;DHT22;46834;51.100;6.886;2022-07-29T12:17:55;24.10;41.50
60965;DHT22;46834;51.100;6.886;2022-07-29T12:20:29;24.10;41.30
60965;DHT22;46834;51.100;6.886;2022-07-29T12:22:56;24.20;40.70
60965;DHT22;46834;51.100;6.886;2022-07-29T12:25:23;24.30;41.00
60965;DHT22;46834;51.100;6.886;2022-07-29T12:28:04;24.30;40.60
60965;DHT22;46834;51.100;6.886;2022-07-29T12:30:43;24.30;40.00
60965;DHT22;46834;51.100;6.886;2022-07-29T12:33:24;24.40;40.10
60965;DHT22;46834;51.100;6.886;2022-07-29T12:36:00;24.40;39.60
60965;DHT22;46834;51.100;6.886;2022-07-29T12:38:29;24.40;39.60
60965;DHT22;46834;51.100;6.886;2022-07-29T12:40:55;24.40;39.80
60965;DHT22;46834;51.100;6.886;2022-07-29T12:43:23;24.30;39.70
60965;DHT22;46834;51.100;6.886;2022-07-29T12:45:52;24.40;39.70
60965;DHT22;46834;51.100;6.886;2022-07-29T12:48:40;24.30;39.90
60965;DHT22;46834;51.100;6.886;2022-07-29T12:51:08;24.40;39.60
60965;DHT22;46834;51.100;6.886;2022-07-29T12:53:37;24.50;40.00
60965;DHT22;46834;51.100;6.886;2022-07-29T12:56:04;24.60;40.20
60965;DHT22;46834;51.100;6.886;2022-07-29T12:58:36;24.70;40.30
60965;DHT22;46834;51.100;6.886;2022-07-29T13:03:46;24.90;39.80
60965;DHT22;46834;51.100;6.886;2022-07-29T13:09:20;24.90;39.60
60965;DHT22;46834;51.100;6.886;2022-07-29T13:11:51;24.90;39.50
60965;DHT22;46834;51.100;6.886;2022-07-29T13:14:36;24.90;39.80
60965;DHT22;46834;51.100;6.886;2022-07-29T13:17:05;24.90;39.60
60965;DHT22;46834;51.100;6.886;2022-07-29T13:19:47;24.90;39.80
60965;DHT22;46834;51.100;6.886;2022-07-29T13:22:22;24.90;39.70
60965;DHT22;46834;51.100;6.886;2022-07-29T13:24:57;24.90;39.80
60965;DHT22;46834;51.100;6.886;2022-07-29T13:27:28;24.90;39.80
60965;DHT22;46834;51.100;6.886;2022-07-29T13:29:58;24.90;40.30
60965;DHT22;46834;51.100;6.886;2022-07-29T13:32:27;24.90;39.60
60965;DHT22;46834;51.100;6.886;2022-07-29T13:34:54;24.90;39.50
60965;DHT22;46834;51.100;6.886;2022-07-29T13:37:20;25.00;39.50
60965;DHT22;46834;51.100;6.886;2022-07-29T13:39:46;25.00;39.50
60965;DHT22;46834;51.100;6.886;2022-07-29T13:42:12;25.00;39.50
60965;DHT22;46834;51.100;6.886;2022-07-29T13:44:39;25.00;39.50
60965;DHT22;46834;51.100;6.886;2022-07-29T13:47:06;25.10;39.40
60965;DHT22;46834;51.100;6.886;2022-07-29T13:49:33;25.10;39.30
60965;DHT22;46834;51.100;6.886;2022-07-29T13:51:59;25.10;39.20
60965;DHT22;46834;51.100;6.886;2022-07-29T13:54:24;25.10;39.10
60965;DHT22;46834;51.100;6.886;2022-07-29T13:56:51;25.20;39.90
60965;DHT22;46834;51.100;6.886;2022-07-29T13:59:17;25.20;39.20
60965;DHT22;46834;51.100;6.886;2022-07-29T14:01:42;25.20;39.00
60965;DHT22;46834;51.100;6.886;2022-07-29T14:04:09;25.30;39.00
60965;DHT22;46834;51.100;6.886;2022-07-29T14:06:36;25.40;39.00
60965;DHT22;46834;51.100;6.886;2022-07-29T14:09:03;25.40;38.90
60965;DHT22;46834;51.100;6.886;2022-07-29T14:11:32;25.50;38.90
60965;DHT22;46834;51.100;6.886;2022-07-29T14:13:58;25.50;38.90
60965;DHT22;46834;51.100;6.886;2022-07-29T14:16:24;25.60;38.90
60965;DHT22;46834;51.100;6.886;2022-07-29T14:18:50;25.60;38.10
60965;DHT22;46834;51.100;6.886;2022-07-29T14:21:16;25.60;38.50
60965;DHT22;46834;51.100;6.886;2022-07-29T14:23:42;25.60;38.50
60965;DHT22;46834;51.100;6.886;2022-07-29T14:26:08;25.60;38.30
60965;DHT22;46834;51.100;6.886;2022-07-29T14:28:33;25.60;38.30
60965;DHT22;46834;51.100;6.886;2022-07-29T14:30:59;25.60;38.30
60965;DHT22;46834;51.100;6.886;2022-07-29T14:33:25;25.60;38.30
60965;DHT22;46834;51.100;6.886;2022-07-29T14:35:50;25.50;38.20
60965;DHT22;46834;51.100;6.886;2022-07-29T14:38:16;25.50;38.10
60965;DHT22;46834;51.100;6.886;2022-07-29T14:40:42;25.50;38.20
60965;DHT22;46834;51.100;6.886;2022-07-29T14:43:07;25.50;38.40
60965;DHT22;46834;51.100;6.886;2022-07-29T14:45:33;25.50;38.10
60965;DHT22;46834;51.100;6.886;2022-07-29T14:47:59;25.40;38.00
60965;DHT22;46834;51.100;6.886;2022-07-29T14:50:25;25.40;37.90
60965;DHT22;46834;51.100;6.886;2022-07-29T14:52:52;25.40;38.00
60965;DHT22;46834;51.100;6.886;2022-07-29T14:55:18;25.40;38.00
60965;DHT22;46834;51.100;6.886;2022-07-29T14:57:44;25.40;38.10
60965;DHT22;46834;51.100;6.886;2022-07-29T15:00:10;25.40;38.10
60965;DHT22;46834;51.100;6.886;2022-07-29T15:02:37;25.40;38.10
60965;DHT22;46834;51.100;6.886;2022-07-29T15:05:03;25.40;38.00
60965;DHT22;46834;51.100;6.886;2022-07-29T15:07:29;25.40;38.00
60965;DHT22;46834;51.100;6.886;2022-07-29T15:09:54;25.40;37.70
60965;DHT22;46834;51.100;6.886;2022-07-29T15:12:20;25.40;37.70
60965;DHT22;46834;51.100;6.886;2022-07-29T15:14:46;25.40;37.70
60965;DHT22;46834;51.100;6.886;2022-07-29T15:17:11;25.40;37.60
60965;DHT22;46834;51.100;6.886;2022-07-29T15:19:37;25.40;37.60
60965;DHT22;46834;51.100;6.886;2022-07-29T15:22:03;25.50;37.50
60965;DHT22;46834;51.100;6.886;2022-07-29T15:24:30;25.50;37.30
60965;DHT22;46834;51.100;6.886;2022-07-29T15:26:56;25.50;37.20
60965;DHT22;46834;51.100;6.886;2022-07-29T15:29:22;25.50;37.20
60965;DHT22;46834;51.100;6.886;2022-07-29T15:31:48;25.50;37.00
60965;DHT22;46834;51.100;6.886;2022-07-29T15:34:14;25.50;36.90
60965;DHT22;46834;51.100;6.886;2022-07-29T15:36:40;25.50;36.90
60965;DHT22;46834;51.100;6.886;2022-07-29T15:39:06;25.50;36.80
60965;DHT22;46834;51.100;6.886;2022-07-29T15:41:32;25.50;36.70
60965;DHT22;46834;51.100;6.886;2022-07-29T15:43:59;25.50;36.50
60965;DHT22;46834;51.100;6.886;2022-07-29T15:46:24;25.50;36.30
60965;DHT22;46834;51.100;6.886;2022-07-29T15:49:09;25.50;36.30
60965;DHT22;46834;51.100;6.886;2022-07-29T15:51:35;25.50;36.10
60965;DHT22;46834;51.100;6.886;2022-07-29T15:54:02;25.40;36.00
60965;DHT22;46834;51.100;6.886;2022-07-29T15:56:29;25.40;36.00
60965;DHT22;46834;51.100;6.886;2022-07-29T15:58:55;25.30;36.00
60965;DHT22;46834;51.100;6.886;2022-07-29T16:01:21;25.30;35.90
60965;DHT22;46834;51.100;6.886;2022-07-29T16:03:47;25.30;35.80
60965;DHT22;46834;51.100;6.886;2022-07-29T16:06:13;25.20;35.70
60965;DHT22;46834;51.100;6.886;2022-07-29T16:08:39;25.20;35.50
60965;DHT22;46834;51.100;6.886;2022-07-29T16:11:04;25.20;35.50
60965;DHT22;46834;51.100;6.886;2022-07-29T16:13:30;25.20;35.70
60965;DHT22;46834;51.100;6.886;2022-07-29T16:15:56;25.20;35.60
60965;DHT22;46834;51.100;6.886;2022-07-29T16:18:21;25.10;35.50
60965;DHT22;46834;51.100;6.886;2022-07-29T16:20:47;25.10;35.60
60965;DHT22;46834;51.100;6.886;2022-07-29T16:23:13;25.10;35.60
60965;DHT22;46834;51.100;6.886;2022-07-29T16:25:40;25.10;35.80
60965;DHT22;46834;51.100;6.886;2022-07-29T16:28:06;25.10;35.60
60965;DHT22;46834;51.100;6.886;2022-07-29T16:30:33;25.00;35.60
60965;DHT22;46834;51.100;6.886;2022-07-29T16:32:59;25.10;35.40